Time;durP1;ratioP1;P1;durP2;ratioP2;P2;SDS_P1;SDS_P2;PMS_P1;PMS_P2;Temp;Humidity;BMP_temperature;BMP_pressure;BME280_temperature;BME280_humidity;BME280_pressure;Samples;Min_cycle;Max_cycle;Signal;HPM_P1;HPM_P2
2021/03/29 00:00:54;;;;;;;16.20;6.50;;;;;;;9.05;63.87;101107.16;5071649;28;20037;-69
2021/03/29 00:03:28;;;;;;;20.58;6.30;;;;;;;9.04;63.76;101110.56;5072363;28;20048;-69
2021/03/29 00:06:00;;;;;;;14.85;5.78;;;;;;;9.03;63.91;101100.19;5072456;28;20484;-69
2021/03/29 00:08:38;;;;;;;18.95;5.55;;;;;;;9.04;63.65;101099.34;5074540;28;20369;-69
2021/03/29 00:11:11;;;;;;;16.42;6.63;;;;;;;9.03;63.58;101108.81;5076824;28;20040;-69
2021/03/29 00:13:46;;;;;;;15.63;6.28;;;;;;;9.04;63.60;101102.81;5075218;28;20408;-70
2021/03/29 00:16:22;;;;;;;14.52;5.68;;;;;;;9.03;63.62;101107.94;5075246;28;20506;-69
2021/03/29 00:18:58;;;;;;;20.13;5.72;;;;;;;9.02;63.57;101108.75;5075051;28;20548;-69
2021/03/29 00:21:29;;;;;;;13.18;6.07;;;;;;;9.02;63.72;101101.88;5076666;28;20372;-69
2021/03/29 00:24:02;;;;;;;18.83;6.15;;;;;;;9.02;63.63;101098.41;5076063;28;20036;-70
2021/03/29 00:26:37;;;;;;;10.70;5.33;;;;;;;9.02;63.86;101098.41;5076103;28;20377;-69
2021/03/29 00:29:09;;;;;;;17.70;6.20;;;;;;;9.02;63.61;101091.53;5076313;28;20037;-69
2021/03/29 00:31:46;;;;;;;11.90;5.70;;;;;;;9.03;63.30;101100.19;5075874;28;20033;-69
2021/03/29 00:34:19;;;;;;;18.50;5.88;;;;;;;9.04;63.39;101099.34;5076144;28;20036;-69
2021/03/29 00:36:57;;;;;;;10.73;5.72;;;;;;;9.04;63.59;101099.34;5076370;28;20037;-69
2021/03/29 00:39:29;;;;;;;11.82;5.78;;;;;;;9.02;63.57;101099.28;5076263;28;20163;-69
2021/03/29 00:42:06;;;;;;;21.58;6.80;;;;;;;9.01;63.50;101104.41;5074474;28;20024;-69
2021/03/29 00:44:36;;;;;;;19.40;6.90;;;;;;;9.00;63.21;101098.34;5075860;28;20043;-69
2021/03/29 00:47:10;;;;;;;14.65;5.95;;;;;;;9.01;63.36;101101.81;5076588;28;20035;-69
2021/03/29 00:49:41;;;;;;;15.75;6.47;;;;;;;9.01;63.52;101099.25;5075739;28;20041;-69
2021/03/29 00:52:18;;;;;;;17.17;6.30;;;;;;;9.02;63.44;101098.41;5076020;28;20064;-69
2021/03/29 00:54:55;;;;;;;12.82;5.80;;;;;;;9.02;63.27;101098.41;5057797;28;20033;-69
2021/03/29 00:57:34;;;;;;;12.38;5.05;;;;;;;9.03;63.46;101098.47;5075988;28;20046;-69
2021/03/29 01:00:11;;;;;;;23.58;5.72;;;;;;;9.03;63.29;101103.63;5074715;28;20510;-69
2021/03/29 01:02:43;;;;;;;14.32;5.63;;;;;;;9.03;63.30;101100.19;5073996;28;20052;-70
2021/03/29 01:05:22;;;;;;;13.25;7.10;;;;;;;9.02;63.43;101098.41;5075116;28;20039;-70
2021/03/29 01:07:57;;;;;;;18.45;5.72;;;;;;;9.02;63.30;101095.84;5075574;28;20034;-69
2021/03/29 01:10:34;;;;;;;19.65;5.80;;;;;;;9.00;63.36;101103.50;5074345;28;20032;-70
2021/03/29 01:13:12;;;;;;;13.40;5.10;;;;;;;9.02;63.40;101108.75;5075393;28;20047;-70
2021/03/29 01:15:49;;;;;;;11.40;5.70;;;;;;;9.03;63.30;101110.53;5075469;28;20044;-70
2021/03/29 01:18:30;;;;;;;19.92;5.97;;;;;;;9.02;63.34;101101.88;5074138;28;20078;-70
2021/03/29 01:21:13;;;;;;;17.73;5.90;;;;;;;8.99;63.36;101110.41;5075493;28;20044;-70
2021/03/29 01:23:55;;;;;;;15.13;5.75;;;;;;;8.99;63.25;101102.66;5074109;28;20037;-70
2021/03/29 01:26:38;;;;;;;15.77;4.65;;;;;;;8.99;63.17;101101.75;5074873;28;20119;-70
2021/03/29 01:29:08;;;;;;;14.98;4.53;;;;;;;8.98;63.03;101103.47;5074453;28;20094;-70
2021/03/29 01:31:48;;;;;;;12.10;5.43;;;;;;;8.98;63.06;101093.13;5073572;28;20060;-70
2021/03/29 01:34:22;;;;;;;12.43;4.80;;;;;;;8.97;63.39;101093.03;5073568;28;20056;-70
2021/03/29 01:36:55;;;;;;;13.77;5.07;;;;;;;8.98;63.18;101102.56;5074442;28;20495;-69
2021/03/29 01:39:28;;;;;;;11.45;4.25;;;;;;;8.98;63.33;101100.88;5075177;28;20063;-70
2021/03/29 01:42:06;;;;;;;13.68;4.68;;;;;;;8.98;62.95;101099.97;5073984;28;20064;-70
2021/03/29 01:44:38;;;;;;;16.58;4.82;;;;;;;8.97;63.20;101098.22;5074814;28;20071;-70
2021/03/29 01:47:14;;;;;;;11.15;4.63;;;;;;;8.98;63.13;101097.41;5073515;28;20491;-69
2021/03/29 01:49:44;;;;;;;11.95;4.82;;;;;;;8.97;63.01;101098.22;5073579;28;20394;-70
2021/03/29 01:52:17;;;;;;;14.00;4.95;;;;;;;8.96;63.05;101093.84;5074655;28;20035;-69
2021/03/29 01:54:54;;;;;;;8.50;3.70;;;;;;;8.96;62.91;101097.34;5074799;28;20131;-68
2021/03/29 01:57:24;;;;;;;9.50;4.70;;;;;;;8.98;63.06;101087.06;5073441;28;20028;-68
2021/03/29 01:59:58;;;;;;;13.02;4.45;;;;;;;8.99;63.03;101097.47;5074455;28;20044;-67
2021/03/29 02:02:29;;;;;;;11.73;4.90;;;;;;;8.96;63.12;101087.00;5073207;28;20045;-68
2021/03/29 02:05:12;;;;;;;9.80;4.22;;;;;;;8.95;62.91;101087.81;5074580;28;20033;-69
2021/03/29 02:07:47;;;;;;;13.73;4.55;;;;;;;8.96;63.19;101087.00;5073106;28;20131;-68
2021/03/29 02:10:34;;;;;;;10.18;4.75;;;;;;;8.96;63.33;101092.19;5074108;28;20106;-68
2021/03/29 02:13:21;;;;;;;13.27;4.60;;;;;;;8.96;63.11;101089.59;5073505;28;20138;-69
2021/03/29 02:15:52;;;;;;;9.55;4.03;;;;;;;8.96;62.71;101092.19;5072937;28;20044;-68
2021/03/29 02:18:21;;;;;;;12.45;4.80;;;;;;;8.97;62.96;101093.03;5056254;28;20072;-69
2021/03/29 02:20:54;;;;;;;12.07;4.85;;;;;;;8.96;62.98;101092.19;5073760;28;20054;-69
2021/03/29 02:23:27;;;;;;;11.75;4.80;;;;;;;8.96;62.79;101083.53;5074101;28;20480;-68
2021/03/29 02:26:06;;;;;;;17.15;3.88;;;;;;;8.96;62.91;101075.75;5073474;28;20040;-69
2021/03/29 02:28:43;;;;;;;12.82;4.85;;;;;;;8.95;62.84;101081.78;5074098;28;20036;-68
2021/03/29 02:31:13;;;;;;;13.65;4.65;;;;;;;8.95;62.97;101089.53;5072089;28;20047;-67
2021/03/29 02:33:48;;;;;;;12.50;4.15;;;;;;;8.93;63.12;101086.88;5072905;28;20059;-69
2021/03/29 02:36:22;;;;;;;16.40;3.92;;;;;;;8.95;63.10;101089.53;5072735;28;20035;-68
2021/03/29 02:38:56;;;;;;;11.77;3.88;;;;;;;8.95;62.93;101092.13;5074269;28;20127;-70
2021/03/29 02:41:30;;;;;;;;;;;;;;;8.94;62.92;101087.78;5074145;28;20105;-70
2021/03/29 02:44:09;;;;;;;12.40;4.28;;;;;;;8.93;62.84;101084.28;5073744;28;19919;-70
2021/03/29 02:46:48;;;;;;;9.57;3.80;;;;;;;8.94;62.87;101092.94;5072610;28;20102;-70
2021/03/29 02:49:25;;;;;;;9.02;4.10;;;;;;;8.95;63.12;101092.13;5072581;28;20491;-70
2021/03/29 02:52:05;;;;;;;13.70;4.97;;;;;;;8.96;62.82;101094.75;5073238;28;20560;-70
2021/03/29 02:54:42;;;;;;;12.20;3.85;;;;;;;8.94;62.81;101093.81;5074127;28;20032;-70
2021/03/29 02:57:19;;;;;;;13.68;3.88;;;;;;;8.95;62.91;101097.28;5073344;28;20044;-70
2021/03/29 02:59:54;;;;;;;15.75;5.15;;;;;;;8.95;62.89;101093.00;5073151;28;20033;-70
2021/03/29 03:02:32;;;;;;;10.65;3.92;;;;;;;8.95;63.06;101095.59;5073591;28;20050;-70
2021/03/29 03:05:05;;;;;;;6.40;2.90;;;;;;;8.97;62.91;101101.69;5072229;28;20071;-70
2021/03/29 03:07:44;;;;;;;7.00;3.88;;;;;;;8.96;62.96;101091.28;5072132;28;20111;-70
2021/03/29 03:10:18;;;;;;;9.43;3.60;;;;;;;8.98;62.86;101102.56;5071952;28;20427;-70
2021/03/29 03:12:47;;;;;;;;;;;;;;;8.97;63.04;101095.63;5073884;28;20089;-70
2021/03/29 03:15:25;;;;;;;9.35;4.18;;;;;;;8.97;62.90;101098.22;5072954;28;19999;-70
2021/03/29 03:18:02;;;;;;;12.18;3.28;;;;;;;8.98;62.92;101106.06;5073241;28;20408;-70
2021/03/29 03:20:38;;;;;;;7.75;3.78;;;;;;;8.97;62.76;101108.56;5073212;28;20450;-69
2021/03/29 03:23:21;;;;;;;12.25;4.35;;;;;;;8.96;62.91;101109.38;5073433;28;20036;-69
2021/03/29 03:25:54;;;;;;;9.25;4.22;;;;;;;8.96;62.93;101109.38;5072732;28;20037;-69
2021/03/29 03:28:28;;;;;;;13.13;5.10;;;;;;;8.97;62.69;101108.56;5072314;28;20416;-69
2021/03/29 03:31:01;;;;;;;10.13;3.75;;;;;;;8.97;62.89;101105.97;5073336;28;20040;-69
2021/03/29 03:33:36;;;;;;;7.00;4.00;;;;;;;8.96;62.75;101099.94;5071714;28;20135;-69
2021/03/29 03:36:15;;;;;;;10.88;4.25;;;;;;;8.98;62.86;101102.56;5073165;28;20418;-69
2021/03/29 03:38:49;;;;;;;6.22;3.30;;;;;;;8.98;63.14;101108.63;5072173;28;20068;-70
2021/03/29 03:41:32;;;;;;;12.00;4.53;;;;;;;8.97;62.93;101103.38;5072190;28;20112;-69
2021/03/29 03:44:07;;;;;;;8.60;3.33;;;;;;;8.98;63.19;101116.38;5075540;28;20490;-69
2021/03/29 03:46:51;;;;;;;10.15;3.40;;;;;;;8.96;62.84;101110.28;5075776;28;20089;-69
2021/03/29 03:49:27;;;;;;;13.20;4.00;;;;;;;8.96;63.06;101107.69;5076223;28;20127;-69
2021/03/29 03:52:04;;;;;;;10.50;3.70;;;;;;;8.95;62.88;101108.50;5075934;28;20036;-69
2021/03/29 03:54:39;;;;;;;8.80;4.00;;;;;;;8.95;62.83;101105.06;5076946;28;20036;-69
2021/03/29 03:57:09;;;;;;;5.40;2.67;;;;;;;8.94;63.00;101103.28;5058703;28;20574;-69
2021/03/29 03:59:43;;;;;;;7.50;3.63;;;;;;;8.94;62.87;101100.72;5077267;28;20131;-69
2021/03/29 04:02:21;;;;;;;5.88;3.03;;;;;;;8.93;62.64;101101.53;5076901;28;20480;-69
2021/03/29 04:04:54;;;;;;;9.20;3.67;;;;;;;8.94;62.85;101111.91;5075581;28;20376;-69
2021/03/29 04:07:25;;;;;;;10.40;4.18;;;;;;;8.94;62.98;101108.47;5076616;28;20032;-69
2021/03/29 04:10:07;;;;;;;8.27;3.50;;;;;;;8.92;62.83;101105.78;5075634;28;20048;-70
2021/03/29 04:12:54;;;;;;;8.43;3.08;;;;;;;8.91;63.04;101104.03;5076633;28;20051;-69
2021/03/29 04:15:25;;;;;;;10.02;3.55;;;;;;;8.91;63.07;101110.91;5076676;28;20036;-69
2021/03/29 04:17:59;;;;;;;9.43;3.28;;;;;;;8.89;62.80;101115.13;5075173;28;20037;-69
2021/03/29 04:20:36;;;;;;;6.10;3.42;;;;;;;8.87;62.91;101112.50;5074925;28;20032;-69
2021/03/29 04:23:05;;;;;;;6.93;3.10;;;;;;;8.85;62.55;101111.56;5074982;28;20033;-69
2021/03/29 04:25:39;;;;;;;10.23;3.40;;;;;;;8.86;62.91;101115.00;5075789;28;20486;-69
2021/03/29 04:28:11;;;;;;;10.70;3.30;;;;;;;8.84;62.87;101112.38;5076335;28;20097;-69
2021/03/29 04:32:55;;;;;;;7.22;3.03;;;;;;;8.81;62.94;101118.28;5132205;27;20534;-68
2021/03/29 04:35:34;;;;;;;14.00;3.63;;;;;;;8.80;62.81;101120.81;5113896;28;20088;-68
2021/03/29 04:38:11;;;;;;;8.48;4.05;;;;;;;8.80;63.05;101121.69;5131950;28;20122;-68
2021/03/29 04:40:50;;;;;;;8.68;3.50;;;;;;;8.80;62.61;101126.84;5131824;28;20118;-68
2021/03/29 04:43:23;;;;;;;8.15;3.90;;;;;;;8.79;62.92;101127.72;5132020;28;20039;-68
2021/03/29 04:45:57;;;;;;;5.68;3.33;;;;;;;8.80;62.76;101126.00;5132394;28;20031;-70
2021/03/29 04:48:31;;;;;;;6.68;3.72;;;;;;;8.78;62.91;101120.78;5131694;28;20031;-70
2021/03/29 04:50:59;;;;;;;;;;;;;;;8.76;62.84;101122.41;5132086;28;20054;-69
2021/03/29 04:53:38;;;;;;;12.65;4.22;;;;;;;8.75;62.80;101119.75;5113584;28;19925;-70
2021/03/29 04:56:14;;;;;;;10.73;3.72;;;;;;;8.76;62.77;101127.56;5113828;28;20035;-70
2021/03/29 04:58:53;;;;;;;6.70;3.17;;;;;;;8.74;62.82;101129.22;5147464;27;20126;-70
2021/03/29 05:01:29;;;;;;;7.15;3.47;;;;;;;8.77;63.03;101137.09;5112989;28;20042;-70
2021/03/29 05:04:05;;;;;;;7.25;3.33;;;;;;;8.76;62.78;101134.44;5131268;28;20043;-69
2021/03/29 05:06:38;;;;;;;6.60;3.47;;;;;;;8.77;62.68;101131.94;5131363;28;20084;-69
2021/03/29 05:09:12;;;;;;;6.97;3.63;;;;;;;8.76;62.93;101137.91;5147425;27;20035;-69
2021/03/29 05:11:49;;;;;;;7.70;2.83;;;;;;;8.78;63.09;101141.44;5131258;28;20078;-69
2021/03/29 05:14:29;;;;;;;9.68;3.45;;;;;;;8.77;62.80;101141.38;5095652;28;20031;-69
2021/03/29 05:17:06;;;;;;;14.38;4.15;;;;;;;8.76;63.02;101139.59;5131216;28;20036;-69
2021/03/29 05:19:43;;;;;;;6.32;3.35;;;;;;;8.78;62.73;101141.44;5130982;28;20035;-69
2021/03/29 05:22:17;;;;;;;9.20;4.05;;;;;;;8.76;62.88;101148.25;5130890;28;20482;-69
2021/03/29 05:24:48;;;;;;;7.45;3.17;;;;;;;8.75;62.97;101143.00;5112643;28;20062;-69
2021/03/29 05:27:22;;;;;;;9.75;3.55;;;;;;;8.75;62.94;101141.31;5113305;28;20501;-69
2021/03/29 05:29:56;;;;;;;7.50;3.65;;;;;;;8.75;63.11;101146.50;5095633;28;20093;-69
2021/03/29 05:32:33;;;;;;;10.35;3.10;;;;;;;8.74;62.58;101151.56;5130531;28;20493;-69
2021/03/29 05:35:07;;;;;;;7.88;3.72;;;;;;;8.74;63.07;101142.13;5112187;28;20035;-69
2021/03/29 05:37:43;;;;;;;10.20;3.53;;;;;;;8.75;62.85;101149.06;5130950;28;20027;-69
2021/03/29 05:40:22;;;;;;;8.90;3.10;;;;;;;8.71;62.95;101138.56;5130485;28;20580;-69
2021/03/29 05:42:56;;;;;;;8.02;3.85;;;;;;;8.71;63.25;101147.16;5124527;28;20060;-69
2021/03/29 05:45:35;;;;;;;6.90;3.58;;;;;;;8.70;62.86;101144.53;5098808;28;20478;-69
2021/03/29 05:48:08;;;;;;;14.15;3.83;;;;;;;8.71;62.95;101141.13;5098918;28;20027;-69
2021/03/29 05:50:42;;;;;;;8.40;2.60;;;;;;;8.71;62.83;101141.13;5098691;28;20051;-70
2021/03/29 05:53:18;;;;;;;7.95;3.40;;;;;;;8.71;62.93;101139.41;5116455;28;20514;-69
2021/03/29 05:55:55;;;;;;;8.73;3.25;;;;;;;8.70;63.00;101140.25;5116567;28;20039;-69
2021/03/29 06:00:56;;;;;;;9.52;3.45;;;;;;;8.70;62.83;101148.00;5116605;28;20506;-69
2021/03/29 06:03:30;;;;;;;9.52;3.50;;;;;;;8.70;63.01;101148.00;5116396;28;20031;-69
2021/03/29 06:06:20;;;;;;;7.72;3.22;;;;;;;8.68;62.82;101149.63;5116252;28;20044;-69
2021/03/29 06:08:47;;;;;;;8.57;3.72;;;;;;;8.71;62.60;101146.31;5107476;28;20487;-69
2021/03/29 06:11:27;;;;;;;8.13;3.83;;;;;;;8.70;62.99;101153.16;5098041;28;20039;-70
2021/03/29 06:14:29;;;;;;;9.95;3.50;;;;;;;8.69;63.05;101156.56;5098420;28;20112;-69
2021/03/29 06:17:21;;;;;;;9.50;3.17;;;;;;;8.70;63.15;101160.03;5066258;28;20538;-69
2021/03/29 06:19:54;;;;;;;10.02;3.15;;;;;;;8.69;62.93;101153.97;5116103;28;20038;-69
2021/03/29 06:22:32;;;;;;;8.50;2.78;;;;;;;8.69;62.75;101159.16;5098145;28;20036;-70
2021/03/29 06:25:10;;;;;;;9.60;3.67;;;;;;;8.70;63.06;101170.38;5116096;28;20042;-69
2021/03/29 06:27:45;;;;;;;10.63;3.50;;;;;;;8.67;62.78;101166.84;5115868;28;20054;-69
2021/03/29 06:30:18;;;;;;;9.57;3.85;;;;;;;8.70;62.92;101173.84;5097920;28;20077;-69
2021/03/29 06:33:09;;;;;;;7.25;3.30;;;;;;;8.71;62.96;101174.75;5097407;28;20044;-69
2021/03/29 06:35:49;;;;;;;10.48;3.38;;;;;;;8.72;62.83;101185.13;5097157;28;20088;-69
2021/03/29 06:38:30;;;;;;;5.50;3.22;;;;;;;8.72;62.99;101172.19;5097704;28;20031;-70
2021/03/29 06:41:01;;;;;;;17.55;4.53;;;;;;;8.70;62.92;101168.66;5080504;28;20508;-70
2021/03/29 06:43:40;;;;;;;10.10;3.42;;;;;;;8.72;62.96;101168.75;5097088;28;20039;-69
2021/03/29 06:46:25;;;;;;;7.72;3.38;;;;;;;8.71;62.84;101180.78;5097580;28;20518;-69
2021/03/29 06:48:54;;;;;;;;;;;;;;;8.69;63.10;101177.25;5097789;28;20027;-69
2021/03/29 06:51:31;;;;;;;11.45;3.45;;;;;;;8.70;62.82;101178.13;5097206;28;19915;-69
2021/03/29 06:54:04;;;;;;;6.20;2.97;;;;;;;8.72;63.02;101179.09;5114956;28;20043;-69
2021/03/29 06:56:47;;;;;;;13.77;4.35;;;;;;;8.72;63.25;101185.13;5097277;28;20027;-69
2021/03/29 06:59:24;;;;;;;13.00;4.40;;;;;;;8.73;62.95;101186.00;5097633;28;20046;-70
2021/03/29 07:02:06;;;;;;;10.30;4.57;;;;;;;8.74;63.18;101196.41;5115199;28;20498;-70
2021/03/29 07:04:37;;;;;;;9.45;4.03;;;;;;;8.76;63.25;101191.28;5115250;28;20044;-69
2021/03/29 07:07:11;;;;;;;13.55;3.67;;;;;;;8.78;63.28;101205.19;5096978;28;20036;-69
2021/03/29 07:09:47;;;;;;;6.57;3.55;;;;;;;8.79;63.07;101194.91;5115523;28;20093;-69
2021/03/29 07:12:20;;;;;;;9.07;3.80;;;;;;;8.81;63.13;101201.00;5115451;28;20080;-70
2021/03/29 07:14:53;;;;;;;7.45;3.22;;;;;;;8.84;63.08;101210.63;5097012;28;20054;-70
2021/03/29 07:17:29;;;;;;;13.18;3.78;;;;;;;8.86;63.08;101208.09;5079625;28;20411;-69
2021/03/29 07:20:02;;;;;;;12.90;4.07;;;;;;;8.87;63.16;101215.03;5115295;28;20084;-69
2021/03/29 07:22:35;;;;;;;14.10;4.60;;;;;;;8.89;63.23;101214.25;5097336;28;20035;-70
2021/03/29 07:25:05;;;;;;;10.95;3.58;;;;;;;8.91;63.18;101214.34;5115123;28;20035;-70
2021/03/29 07:27:43;;;;;;;7.88;3.42;;;;;;;8.92;62.97;101216.97;5096770;28;20031;-70
2021/03/29 07:30:19;;;;;;;12.20;3.92;;;;;;;8.95;63.17;101224.00;5114849;28;20040;-69
2021/03/29 07:32:57;;;;;;;8.00;4.30;;;;;;;8.96;63.16;101226.63;5114795;28;20051;-69
2021/03/29 07:35:46;;;;;;;9.75;3.40;;;;;;;8.98;63.25;101224.09;5096631;28;20053;-69
2021/03/29 07:38:22;;;;;;;9.57;3.28;;;;;;;8.99;62.99;101223.28;5114725;28;20063;-70
2021/03/29 07:40:53;;;;;;;9.77;3.90;;;;;;;9.00;63.09;101230.22;5095967;28;20035;-70
2021/03/29 07:43:29;;;;;;;8.40;3.33;;;;;;;9.02;63.16;101222.53;5114832;28;20073;-70
2021/03/29 07:46:05;;;;;;;14.98;3.90;;;;;;;9.03;62.98;101227.75;5096629;28;20046;-70
2021/03/29 07:48:42;;;;;;;9.55;3.97;;;;;;;9.05;63.15;101226.13;5096353;28;20092;-70
2021/03/29 07:51:16;;;;;;;16.75;3.53;;;;;;;9.06;63.20;101230.47;5078991;28;20118;-70
2021/03/29 07:53:47;;;;;;;10.13;3.70;;;;;;;9.08;63.20;101231.44;5096733;28;20034;-70
2021/03/29 07:56:38;;;;;;;7.18;4.05;;;;;;;9.09;63.02;101228.03;5114681;28;20036;-70
2021/03/29 07:59:09;;;;;;;9.60;3.75;;;;;;;9.10;63.14;101232.38;5086881;28;20044;-70
2021/03/29 08:02:08;;;;;;;9.63;4.07;;;;;;;9.11;62.90;101231.53;5078909;28;20035;-69
2021/03/29 08:05:01;;;;;;;7.45;3.28;;;;;;;9.12;62.84;101228.13;5080072;28;20055;-70
2021/03/29 08:07:44;;;;;;;9.32;4.13;;;;;;;9.13;63.20;101231.63;5114015;28;20028;-70
2021/03/29 08:10:15;;;;;;;6.00;3.78;;;;;;;9.14;62.89;101236.84;5114726;28;20046;-70
2021/03/29 08:13:00;;;;;;;10.75;4.40;;;;;;;9.16;63.07;101229.16;5114077;28;20144;-69
2021/03/29 08:16:06;;;;;;;8.65;4.25;;;;;;;9.14;63.14;101239.44;5114204;28;20489;-70
2021/03/29 08:19:06;;;;;;;11.30;4.20;;;;;;;9.16;63.40;101242.09;5114087;28;20020;-70
2021/03/29 08:21:59;;;;;;;10.50;4.13;;;;;;;9.18;63.14;101247.31;5095999;28;20558;-70
2021/03/29 08:24:33;;;;;;;7.25;3.08;;;;;;;9.19;63.01;101249.09;5095760;28;20391;-69
2021/03/29 08:27:00;;;;;;;15.93;4.18;;;;;;;9.18;63.23;101243.03;5095949;28;20130;-70
2021/03/29 08:29:40;;;;;;;6.50;3.08;;;;;;;9.17;63.25;101259.38;5114199;28;20089;-70
2021/03/29 08:32:32;;;;;;;11.55;4.05;;;;;;;9.19;63.00;101244.78;5113685;28;20427;-70
2021/03/29 08:35:01;;;;;;;6.25;3.30;;;;;;;9.22;63.18;101260.44;5113258;28;20056;-70
2021/03/29 08:37:39;;;;;;;7.63;3.72;;;;;;;9.25;63.26;101257.09;5114073;28;20039;-70
2021/03/29 08:40:30;;;;;;;8.43;3.63;;;;;;;9.30;63.10;101263.31;5113931;28;20036;-70
2021/03/29 08:43:00;;;;;;;11.88;3.20;;;;;;;9.33;63.63;101260.88;5114019;28;20036;-70
2021/03/29 08:45:29;;;;;;;6.13;3.42;;;;;;;9.34;62.95;101265.22;5113569;28;20614;-69
2021/03/29 08:48:06;;;;;;;9.27;3.50;;;;;;;9.35;63.21;101267.00;5095781;28;20069;-70
2021/03/29 08:50:46;;;;;;;11.13;3.00;;;;;;;9.37;63.18;101274.81;5113468;28;20035;-70
2021/03/29 08:53:17;;;;;;;9.13;3.42;;;;;;;9.39;63.09;101268.91;5095768;28;20035;-69
2021/03/29 08:55:58;;;;;;;16.77;3.72;;;;;;;9.41;63.13;101275.03;5079056;28;20036;-69
2021/03/29 08:58:28;;;;;;;7.50;3.13;;;;;;;9.43;63.21;101275.94;5114122;28;20031;-69
2021/03/29 09:00:59;;;;;;;10.55;3.35;;;;;;;9.46;63.13;101280.38;5095737;28;20043;-70
2021/03/29 09:03:32;;;;;;;5.55;2.55;;;;;;;9.48;62.90;101275.25;5113377;28;20035;-70
2021/03/29 09:06:19;;;;;;;7.60;3.35;;;;;;;9.49;63.07;101277.03;5113521;28;20120;-70
2021/03/29 09:08:50;;;;;;;11.52;3.78;;;;;;;9.50;63.19;101277.06;5114108;28;20114;-69
2021/03/29 09:11:26;;;;;;;7.07;3.30;;;;;;;9.52;63.14;101280.59;5113924;28;20036;-70
2021/03/29 09:13:57;;;;;;;6.68;3.30;;;;;;;9.55;62.94;101287.63;5113774;28;20036;-70
2021/03/29 09:16:34;;;;;;;5.18;3.00;;;;;;;9.58;62.93;101290.31;5113672;28;20028;-70
2021/03/29 09:19:18;;;;;;;8.27;2.75;;;;;;;9.60;62.84;101286.09;5116175;28;20108;-70
2021/03/29 09:21:56;;;;;;;15.32;3.10;;;;;;;9.63;62.84;101288.81;5117053;28;20035;-70
2021/03/29 09:24:28;;;;;;;5.55;3.17;;;;;;;9.66;62.93;101291.53;5117433;28;20043;-70
2021/03/29 09:27:11;;;;;;;8.00;3.10;;;;;;;9.68;62.80;101297.66;5117359;28;20036;-71
2021/03/29 09:29:45;;;;;;;8.02;2.97;;;;;;;9.70;62.91;101300.28;5098976;28;20054;-70
2021/03/29 09:32:18;;;;;;;6.70;3.20;;;;;;;9.72;63.07;101296.06;5094683;28;20044;-70
2021/03/29 09:34:53;;;;;;;6.43;3.40;;;;;;;9.74;62.84;101304.75;5095251;28;20035;-69
2021/03/29 09:37:29;;;;;;;8.48;3.65;;;;;;;9.76;62.81;101300.53;5096298;28;20115;-69
2021/03/29 09:40:16;;;;;;;6.57;3.13;;;;;;;9.77;62.83;101304.91;5096164;28;20031;-69
2021/03/29 09:42:53;;;;;;;4.57;2.97;;;;;;;9.79;62.94;101311.03;5095445;28;20040;-69
2021/03/29 09:45:33;;;;;;;7.82;3.45;;;;;;;9.82;62.97;101307.66;5096686;28;20036;-69
2021/03/29 09:48:09;;;;;;;7.68;2.83;;;;;;;9.84;62.71;101316.38;5096471;28;20486;-69
2021/03/29 09:50:44;;;;;;;6.63;3.30;;;;;;;9.86;62.84;101312.13;5078000;28;20040;-70
2021/03/29 09:53:26;;;;;;;5.22;2.60;;;;;;;9.88;62.65;101310.50;5096329;28;20032;-70
2021/03/29 09:56:02;;;;;;;5.85;3.10;;;;;;;9.90;63.10;101319.19;5096314;28;20039;-69
2021/03/29 09:58:43;;;;;;;5.97;2.80;;;;;;;9.93;62.55;101314.13;5096175;28;20043;-70
2021/03/29 10:01:22;;;;;;;3.92;2.50;;;;;;;9.95;62.72;101317.66;5096268;28;20036;-70
2021/03/29 10:04:00;;;;;;;7.57;2.92;;;;;;;9.97;62.77;101322.91;5096060;28;20494;-70
2021/03/29 10:06:35;;;;;;;6.20;2.95;;;;;;;9.97;62.71;101321.19;5095906;28;20118;-70
2021/03/29 10:09:10;;;;;;;3.80;2.25;;;;;;;9.99;62.75;101311.78;5095932;28;20177;-70
2021/03/29 10:11:50;;;;;;;5.63;2.55;;;;;;;10.00;62.92;101320.44;5095330;28;20128;-71
2021/03/29 10:14:40;;;;;;;8.75;2.88;;;;;;;10.01;62.83;101315.31;5096182;28;20118;-70
2021/03/29 10:17:17;;;;;;;6.15;2.80;;;;;;;10.04;62.84;101322.31;5095942;28;20503;-70
2021/03/29 10:19:45;;;;;;;5.63;2.63;;;;;;;10.05;62.54;101314.59;5095825;28;20127;-70
2021/03/29 10:22:23;;;;;;;6.68;2.40;;;;;;;10.06;62.66;101315.50;5094598;28;20044;-69
2021/03/29 10:25:21;;;;;;;11.27;3.33;;;;;;;10.05;62.75;101313.72;5096118;28;20487;-70
2021/03/29 10:27:48;;;;;;;6.97;2.60;;;;;;;10.09;62.75;101312.13;5094017;28;20056;-70
2021/03/29 10:30:25;;;;;;;11.18;2.75;;;;;;;10.09;62.74;101310.44;5095331;28;20177;-70
2021/03/29 10:33:04;;;;;;;6.07;2.70;;;;;;;10.11;62.86;101313.97;5093994;28;20052;-70
2021/03/29 10:35:36;;;;;;;7.75;2.85;;;;;;;10.13;62.31;101321.78;5094050;28;20055;-70
2021/03/29 10:38:10;;;;;;;6.78;2.80;;;;;;;10.15;62.43;101333.97;5094180;28;20043;-70
2021/03/29 10:40:43;;;;;;;5.63;2.45;;;;;;;10.15;62.39;101331.38;5095267;28;20548;-70
2021/03/29 10:43:14;;;;;;;7.10;2.85;;;;;;;10.15;62.53;101326.19;5093985;28;20124;-70
2021/03/29 10:45:48;;;;;;;4.60;2.40;;;;;;;10.17;62.71;101332.31;5095426;28;20032;-70
2021/03/29 10:48:24;;;;;;;6.18;2.53;;;;;;;10.19;62.57;101328.09;5094300;28;20032;-70
2021/03/29 10:50:58;;;;;;;8.38;2.60;;;;;;;10.20;62.55;101327.28;5094960;28;20032;-69
2021/03/29 10:53:31;;;;;;;6.45;2.63;;;;;;;10.23;62.61;101323.03;5095214;28;20514;-69
2021/03/29 10:56:05;;;;;;;7.70;2.70;;;;;;;10.23;62.48;101329.09;5094812;28;20392;-69
2021/03/29 10:58:41;;;;;;;7.20;3.25;;;;;;;10.25;62.76;101318.78;5095195;28;20047;-70
2021/03/29 11:01:15;;;;;;;5.70;2.45;;;;;;;10.27;62.23;101330.97;5094905;28;20040;-70
2021/03/29 11:03:48;;;;;;;3.95;2.20;;;;;;;10.27;62.61;101323.19;5094957;28;20473;-70
2021/03/29 11:06:19;;;;;;;6.70;2.85;;;;;;;10.29;62.48;101326.72;5094048;28;20032;-70
2021/03/29 11:08:50;;;;;;;7.22;2.55;;;;;;;10.30;62.36;101331.09;5095253;28;20097;-70
2021/03/29 11:11:24;;;;;;;3.92;2.38;;;;;;;10.31;62.76;101326.78;5094725;28;20024;-70
2021/03/29 11:13:57;;;;;;;9.60;2.70;;;;;;;10.31;62.23;101327.69;5093449;28;20036;-70
2021/03/29 11:16:28;;;;;;;9.30;2.70;;;;;;;10.34;62.27;101322.63;5094701;28;20081;-70
2021/03/29 11:19:02;;;;;;;5.40;2.45;;;;;;;10.34;62.17;101329.50;5094023;28;20097;-70
2021/03/29 11:21:36;;;;;;;8.07;2.97;;;;;;;10.34;62.55;101327.81;5094686;28;20028;-70
2021/03/29 11:24:07;;;;;;;5.65;3.25;;;;;;;10.38;62.22;101328.81;5093313;28;20036;-70
2021/03/29 11:26:38;;;;;;;7.13;2.67;;;;;;;10.40;62.45;101328.88;5094488;28;20035;-70
2021/03/29 11:29:09;;;;;;;6.28;2.20;;;;;;;10.39;62.25;101320.22;5094795;28;20040;-70
2021/03/29 11:31:44;;;;;;;3.67;2.30;;;;;;;10.42;62.17;101329.81;5093081;28;20568;-70
2021/03/29 11:34:18;;;;;;;5.32;2.65;;;;;;;10.43;62.34;101323.81;5093360;28;20035;-70
2021/03/29 11:36:49;;;;;;;;;;;;;;;10.43;62.38;101326.41;5094836;28;20036;-68
2021/03/29 11:39:22;;;;;;;7.55;2.63;;;;;;;10.42;62.47;101322.94;5094382;28;19916;-68
2021/03/29 11:41:56;;;;;;;4.30;2.80;;;;;;;10.43;62.39;101321.22;5092666;28;20043;-68
2021/03/29 11:44:31;;;;;;;7.80;3.30;;;;;;;10.44;62.37;101333.34;5093586;28;20040;-69
2021/03/29 11:47:05;;;;;;;4.03;2.58;;;;;;;10.44;62.29;101322.97;5092640;28;20034;-68
2021/03/29 11:49:36;;;;;;;7.30;3.35;;;;;;;10.45;62.06;101335.97;5075947;28;20046;-68
2021/03/29 11:52:10;;;;;;;8.60;2.70;;;;;;;10.46;62.19;101332.56;5093085;28;20039;-68
2021/03/29 11:54:40;;;;;;;4.85;2.13;;;;;;;10.46;62.14;101329.97;5094292;28;20076;-69
2021/03/29 11:57:18;;;;;;;4.00;2.33;;;;;;;10.47;62.45;101336.94;5093961;28;20036;-69
2021/03/29 11:59:54;;;;;;;3.75;2.63;;;;;;;10.48;62.03;101332.63;5093426;28;20028;-67
2021/03/29 12:02:36;;;;;;;4.10;2.35;;;;;;;10.49;62.10;101331.81;5093991;28;20039;-69
2021/03/29 12:05:13;;;;;;;6.85;2.83;;;;;;;10.50;62.34;101323.22;5092975;28;20059;-69
2021/03/29 12:13:25;;;;;;;5.57;3.10;;;;;;;10.53;62.26;101325.03;5093513;28;20089;-69
2021/03/29 12:15:55;;;;;;;4.88;2.60;;;;;;;10.55;62.27;101316.47;5093626;28;20032;-70
2021/03/29 12:18:50;;;;;;;6.82;2.47;;;;;;;10.57;62.05;101319.13;5092258;28;20040;-70
2021/03/29 12:21:23;;;;;;;6.50;2.72;;;;;;;10.57;62.27;101320.00;5093991;28;20040;-70